sensor_id;sensor_type;location;lat;lon;timestamp;P1;durP1;ratioP1;P2;durP2;ratioP2
3779;SDS011;1905;52.482;9.802;2023-09-08T00:01:21;13.77;;;6.13;;
3779;SDS011;1905;52.482;9.802;2023-09-08T00:03:48;14.40;;;5.90;;
3779;SDS011;1905;52.482;9.802;2023-09-08T00:06:16;12.50;;;5.83;;
3779;SDS011;1905;52.482;9.802;2023-09-08T00:08:44;12.03;;;5.70;;
3779;SDS011;1905;52.482;9.802;2023-09-08T00:11:13;14.07;;;6.27;;
3779;SDS011;1905;52.482;9.802;2023-09-08T00:13:41;13.07;;;6.00;;
3779;SDS011;1905;52.482;9.802;2023-09-08T00:16:09;13.57;;;5.87;;
3779;SDS011;1905;52.482;9.802;2023-09-08T00:18:37;12.63;;;5.43;;
3779;SDS011;1905;52.482;9.802;2023-09-08T00:21:05;13.40;;;5.93;;
3779;SDS011;1905;52.482;9.802;2023-09-08T00:23:32;15.53;;;5.90;;
3779;SDS011;1905;52.482;9.802;2023-09-08T00:26:00;11.57;;;6.17;;
3779;SDS011;1905;52.482;9.802;2023-09-08T00:28:29;13.50;;;5.60;;
3779;SDS011;1905;52.482;9.802;2023-09-08T00:30:57;13.20;;;5.90;;
3779;SDS011;1905;52.482;9.802;2023-09-08T00:33:26;11.50;;;5.50;;
3779;SDS011;1905;52.482;9.802;2023-09-08T00:35:53;11.00;;;5.87;;
3779;SDS011;1905;52.482;9.802;2023-09-08T00:38:23;13.27;;;5.93;;
3779;SDS011;1905;52.482;9.802;2023-09-08T00:40:51;11.93;;;6.17;;
3779;SDS011;1905;52.482;9.802;2023-09-08T00:43:19;11.30;;;5.43;;
3779;SDS011;1905;52.482;9.802;2023-09-08T00:45:48;12.00;;;6.67;;
3779;SDS011;1905;52.482;9.802;2023-09-08T00:48:16;11.00;;;5.83;;
3779;SDS011;1905;52.482;9.802;2023-09-08T00:50:44;14.73;;;6.30;;
3779;SDS011;1905;52.482;9.802;2023-09-08T00:53:12;14.90;;;6.50;;
3779;SDS011;1905;52.482;9.802;2023-09-08T00:55:40;11.20;;;5.43;;
3779;SDS011;1905;52.482;9.802;2023-09-08T00:58:09;11.57;;;6.30;;
3779;SDS011;1905;52.482;9.802;2023-09-08T01:00:38;12.63;;;6.00;;
3779;SDS011;1905;52.482;9.802;2023-09-08T01:03:07;11.60;;;5.17;;
3779;SDS011;1905;52.482;9.802;2023-09-08T01:05:37;12.33;;;6.30;;
3779;SDS011;1905;52.482;9.802;2023-09-08T01:08:06;11.50;;;5.33;;
3779;SDS011;1905;52.482;9.802;2023-09-08T01:10:34;14.27;;;5.80;;
3779;SDS011;1905;52.482;9.802;2023-09-08T01:13:03;12.87;;;6.33;;
3779;SDS011;1905;52.482;9.802;2023-09-08T01:15:31;14.37;;;6.33;;
3779;SDS011;1905;52.482;9.802;2023-09-08T01:17:59;9.90;;;5.53;;
3779;SDS011;1905;52.482;9.802;2023-09-08T01:20:30;11.80;;;5.87;;
3779;SDS011;1905;52.482;9.802;2023-09-08T01:23:03;11.23;;;5.60;;
3779;SDS011;1905;52.482;9.802;2023-09-08T01:25:44;12.63;;;5.97;;
3779;SDS011;1905;52.482;9.802;2023-09-08T01:28:16;13.47;;;6.00;;
3779;SDS011;1905;52.482;9.802;2023-09-08T01:30:45;12.60;;;6.73;;
3779;SDS011;1905;52.482;9.802;2023-09-08T01:33:14;11.47;;;5.90;;
3779;SDS011;1905;52.482;9.802;2023-09-08T01:35:43;10.93;;;6.17;;
3779;SDS011;1905;52.482;9.802;2023-09-08T01:38:12;11.20;;;5.30;;
3779;SDS011;1905;52.482;9.802;2023-09-08T01:40:39;12.90;;;6.20;;
3779;SDS011;1905;52.482;9.802;2023-09-08T01:43:08;16.87;;;6.47;;
3779;SDS011;1905;52.482;9.802;2023-09-08T01:45:36;13.33;;;5.83;;
3779;SDS011;1905;52.482;9.802;2023-09-08T01:48:04;10.70;;;5.90;;
3779;SDS011;1905;52.482;9.802;2023-09-08T01:50:32;11.53;;;5.40;;
3779;SDS011;1905;52.482;9.802;2023-09-08T01:53:00;12.73;;;5.80;;
3779;SDS011;1905;52.482;9.802;2023-09-08T01:55:27;12.43;;;6.00;;
3779;SDS011;1905;52.482;9.802;2023-09-08T01:57:56;11.60;;;6.23;;
3779;SDS011;1905;52.482;9.802;2023-09-08T02:00:25;11.43;;;5.90;;
3779;SDS011;1905;52.482;9.802;2023-09-08T02:02:52;12.87;;;5.70;;
3779;SDS011;1905;52.482;9.802;2023-09-08T02:05:20;13.43;;;5.87;;
3779;SDS011;1905;52.482;9.802;2023-09-08T02:07:48;11.27;;;6.03;;
3779;SDS011;1905;52.482;9.802;2023-09-08T02:10:16;12.80;;;6.33;;
3779;SDS011;1905;52.482;9.802;2023-09-08T02:12:45;12.10;;;5.90;;
3779;SDS011;1905;52.482;9.802;2023-09-08T02:15:13;13.13;;;6.50;;
3779;SDS011;1905;52.482;9.802;2023-09-08T02:17:44;11.57;;;6.37;;
3779;SDS011;1905;52.482;9.802;2023-09-08T02:20:14;11.50;;;5.20;;
3779;SDS011;1905;52.482;9.802;2023-09-08T02:22:41;11.00;;;5.47;;
3779;SDS011;1905;52.482;9.802;2023-09-08T02:25:09;12.77;;;5.40;;
3779;SDS011;1905;52.482;9.802;2023-09-08T02:27:38;13.77;;;6.20;;
3779;SDS011;1905;52.482;9.802;2023-09-08T02:30:06;12.13;;;6.30;;
3779;SDS011;1905;52.482;9.802;2023-09-08T02:32:34;13.93;;;6.40;;
3779;SDS011;1905;52.482;9.802;2023-09-08T02:35:04;11.07;;;6.10;;
3779;SDS011;1905;52.482;9.802;2023-09-08T02:37:32;10.27;;;5.53;;
3779;SDS011;1905;52.482;9.802;2023-09-08T02:40:00;13.70;;;6.73;;
3779;SDS011;1905;52.482;9.802;2023-09-08T02:42:29;12.00;;;6.10;;
3779;SDS011;1905;52.482;9.802;2023-09-08T02:44:58;13.60;;;7.00;;
3779;SDS011;1905;52.482;9.802;2023-09-08T02:47:25;12.90;;;7.20;;
3779;SDS011;1905;52.482;9.802;2023-09-08T02:49:54;12.47;;;6.60;;
3779;SDS011;1905;52.482;9.802;2023-09-08T02:52:23;11.50;;;6.30;;
3779;SDS011;1905;52.482;9.802;2023-09-08T02:54:50;15.23;;;6.37;;
3779;SDS011;1905;52.482;9.802;2023-09-08T02:57:18;12.60;;;6.10;;
3779;SDS011;1905;52.482;9.802;2023-09-08T02:59:48;13.53;;;6.70;;
3779;SDS011;1905;52.482;9.802;2023-09-08T03:02:17;11.57;;;6.30;;
3779;SDS011;1905;52.482;9.802;2023-09-08T03:04:45;14.10;;;6.47;;
3779;SDS011;1905;52.482;9.802;2023-09-08T03:07:12;16.43;;;6.93;;
3779;SDS011;1905;52.482;9.802;2023-09-08T03:09:43;12.90;;;6.33;;
3779;SDS011;1905;52.482;9.802;2023-09-08T03:12:10;12.73;;;6.40;;
3779;SDS011;1905;52.482;9.802;2023-09-08T03:14:38;14.60;;;6.30;;
3779;SDS011;1905;52.482;9.802;2023-09-08T03:17:06;12.17;;;6.57;;
3779;SDS011;1905;52.482;9.802;2023-09-08T03:19:33;14.70;;;6.93;;
3779;SDS011;1905;52.482;9.802;2023-09-08T03:22:01;12.30;;;6.50;;
3779;SDS011;1905;52.482;9.802;2023-09-08T03:24:30;11.60;;;6.50;;
3779;SDS011;1905;52.482;9.802;2023-09-08T03:26:59;10.93;;;5.90;;
3779;SDS011;1905;52.482;9.802;2023-09-08T03:29:27;12.60;;;6.83;;
3779;SDS011;1905;52.482;9.802;2023-09-08T03:31:55;13.70;;;6.73;;
3779;SDS011;1905;52.482;9.802;2023-09-08T03:34:23;12.37;;;6.10;;
3779;SDS011;1905;52.482;9.802;2023-09-08T03:36:53;12.97;;;6.70;;
3779;SDS011;1905;52.482;9.802;2023-09-08T03:39:21;11.60;;;6.07;;
3779;SDS011;1905;52.482;9.802;2023-09-08T03:41:48;11.80;;;5.77;;
3779;SDS011;1905;52.482;9.802;2023-09-08T03:44:17;13.47;;;6.07;;
3779;SDS011;1905;52.482;9.802;2023-09-08T03:46:48;16.63;;;7.20;;
3779;SDS011;1905;52.482;9.802;2023-09-08T03:49:15;13.87;;;6.90;;
3779;SDS011;1905;52.482;9.802;2023-09-08T03:51:44;14.27;;;6.63;;
3779;SDS011;1905;52.482;9.802;2023-09-08T03:54:11;13.53;;;7.10;;
3779;SDS011;1905;52.482;9.802;2023-09-08T03:56:39;13.90;;;6.50;;
3779;SDS011;1905;52.482;9.802;2023-09-08T03:59:07;18.80;;;7.90;;
3779;SDS011;1905;52.482;9.802;2023-09-08T04:01:36;14.00;;;7.20;;
3779;SDS011;1905;52.482;9.802;2023-09-08T04:04:03;15.17;;;6.90;;
3779;SDS011;1905;52.482;9.802;2023-09-08T04:06:31;13.63;;;6.47;;
3779;SDS011;1905;52.482;9.802;2023-09-08T04:08:59;11.70;;;6.67;;
3779;SDS011;1905;52.482;9.802;2023-09-08T04:11:27;11.80;;;5.70;;
3779;SDS011;1905;52.482;9.802;2023-09-08T04:13:55;16.63;;;7.43;;
3779;SDS011;1905;52.482;9.802;2023-09-08T04:16:23;14.63;;;7.50;;
3779;SDS011;1905;52.482;9.802;2023-09-08T04:18:52;12.20;;;5.80;;
3779;SDS011;1905;52.482;9.802;2023-09-08T04:21:22;12.80;;;6.23;;
3779;SDS011;1905;52.482;9.802;2023-09-08T04:23:50;13.20;;;7.20;;
3779;SDS011;1905;52.482;9.802;2023-09-08T04:26:17;12.10;;;6.37;;
3779;SDS011;1905;52.482;9.802;2023-09-08T04:28:48;14.10;;;6.67;;
3779;SDS011;1905;52.482;9.802;2023-09-08T04:31:15;15.43;;;6.23;;
3779;SDS011;1905;52.482;9.802;2023-09-08T04:33:44;12.03;;;6.10;;
3779;SDS011;1905;52.482;9.802;2023-09-08T04:36:13;12.43;;;6.50;;
3779;SDS011;1905;52.482;9.802;2023-09-08T04:38:41;10.90;;;6.07;;
3779;SDS011;1905;52.482;9.802;2023-09-08T04:41:09;13.90;;;6.50;;
3779;SDS011;1905;52.482;9.802;2023-09-08T04:43:37;13.40;;;6.40;;
3779;SDS011;1905;52.482;9.802;2023-09-08T04:46:04;13.57;;;6.10;;
3779;SDS011;1905;52.482;9.802;2023-09-08T04:48:32;12.00;;;6.50;;
3779;SDS011;1905;52.482;9.802;2023-09-08T04:51:00;11.73;;;6.13;;
3779;SDS011;1905;52.482;9.802;2023-09-08T04:53:30;14.83;;;6.13;;
3779;SDS011;1905;52.482;9.802;2023-09-08T04:55:59;13.00;;;7.17;;
3779;SDS011;1905;52.482;9.802;2023-09-08T04:58:28;11.30;;;6.20;;
3779;SDS011;1905;52.482;9.802;2023-09-08T05:00:56;11.73;;;6.43;;
3779;SDS011;1905;52.482;9.802;2023-09-08T05:03:24;13.67;;;6.70;;
3779;SDS011;1905;52.482;9.802;2023-09-08T05:05:53;13.97;;;6.43;;
3779;SDS011;1905;52.482;9.802;2023-09-08T05:08:21;10.70;;;5.90;;
3779;SDS011;1905;52.482;9.802;2023-09-08T05:10:50;12.67;;;6.47;;
3779;SDS011;1905;52.482;9.802;2023-09-08T05:13:18;12.57;;;6.33;;
3779;SDS011;1905;52.482;9.802;2023-09-08T05:15:57;14.60;;;7.00;;
3779;SDS011;1905;52.482;9.802;2023-09-08T05:18:40;13.23;;;6.40;;
3779;SDS011;1905;52.482;9.802;2023-09-08T05:21:09;14.40;;;6.73;;
3779;SDS011;1905;52.482;9.802;2023-09-08T05:23:36;17.90;;;7.13;;
3779;SDS011;1905;52.482;9.802;2023-09-08T05:26:06;14.53;;;6.67;;
3779;SDS011;1905;52.482;9.802;2023-09-08T05:28:34;12.60;;;6.03;;
3779;SDS011;1905;52.482;9.802;2023-09-08T05:31:05;11.73;;;6.07;;
3779;SDS011;1905;52.482;9.802;2023-09-08T05:33:33;15.63;;;7.30;;
3779;SDS011;1905;52.482;9.802;2023-09-08T05:36:02;13.87;;;7.13;;
3779;SDS011;1905;52.482;9.802;2023-09-08T05:38:30;16.03;;;6.53;;
3779;SDS011;1905;52.482;9.802;2023-09-08T05:40:59;16.60;;;7.30;;
3779;SDS011;1905;52.482;9.802;2023-09-08T05:43:28;16.30;;;8.43;;
3779;SDS011;1905;52.482;9.802;2023-09-08T05:45:56;17.40;;;7.57;;
3779;SDS011;1905;52.482;9.802;2023-09-08T05:48:24;15.90;;;8.03;;
3779;SDS011;1905;52.482;9.802;2023-09-08T05:50:52;17.40;;;9.33;;
3779;SDS011;1905;52.482;9.802;2023-09-08T05:53:19;17.73;;;9.43;;
3779;SDS011;1905;52.482;9.802;2023-09-08T05:55:47;19.13;;;8.93;;
3779;SDS011;1905;52.482;9.802;2023-09-08T05:58:15;18.67;;;9.47;;
3779;SDS011;1905;52.482;9.802;2023-09-08T06:00:44;19.00;;;9.40;;
3779;SDS011;1905;52.482;9.802;2023-09-08T06:03:12;19.37;;;9.57;;
3779;SDS011;1905;52.482;9.802;2023-09-08T06:05:40;21.27;;;10.57;;
3779;SDS011;1905;52.482;9.802;2023-09-08T06:08:08;24.77;;;11.00;;
3779;SDS011;1905;52.482;9.802;2023-09-08T06:10:40;19.50;;;10.10;;
3779;SDS011;1905;52.482;9.802;2023-09-08T06:13:08;17.80;;;9.20;;
3779;SDS011;1905;52.482;9.802;2023-09-08T06:15:36;21.53;;;10.53;;
3779;SDS011;1905;52.482;9.802;2023-09-08T06:18:06;17.63;;;9.17;;
3779;SDS011;1905;52.482;9.802;2023-09-08T06:20:33;17.70;;;10.30;;
3779;SDS011;1905;52.482;9.802;2023-09-08T06:23:01;16.80;;;9.33;;
3779;SDS011;1905;52.482;9.802;2023-09-08T06:25:29;18.67;;;9.47;;
3779;SDS011;1905;52.482;9.802;2023-09-08T06:27:57;20.57;;;9.80;;
3779;SDS011;1905;52.482;9.802;2023-09-08T06:30:25;20.30;;;8.87;;
3779;SDS011;1905;52.482;9.802;2023-09-08T06:32:53;18.83;;;9.87;;
3779;SDS011;1905;52.482;9.802;2023-09-08T06:35:25;20.13;;;10.00;;
3779;SDS011;1905;52.482;9.802;2023-09-08T06:37:54;20.73;;;10.67;;
3779;SDS011;1905;52.482;9.802;2023-09-08T06:40:21;20.53;;;10.27;;
3779;SDS011;1905;52.482;9.802;2023-09-08T06:42:50;20.70;;;10.80;;
3779;SDS011;1905;52.482;9.802;2023-09-08T06:45:27;19.80;;;11.03;;
3779;SDS011;1905;52.482;9.802;2023-09-08T06:47:55;18.17;;;9.17;;
3779;SDS011;1905;52.482;9.802;2023-09-08T06:50:24;21.40;;;10.20;;
3779;SDS011;1905;52.482;9.802;2023-09-08T06:52:53;21.20;;;9.70;;
3779;SDS011;1905;52.482;9.802;2023-09-08T06:55:21;16.97;;;9.00;;
3779;SDS011;1905;52.482;9.802;2023-09-08T06:57:49;16.40;;;9.57;;
3779;SDS011;1905;52.482;9.802;2023-09-08T07:00:17;17.47;;;8.77;;
3779;SDS011;1905;52.482;9.802;2023-09-08T07:02:46;17.17;;;9.37;;
3779;SDS011;1905;52.482;9.802;2023-09-08T07:05:16;19.83;;;10.13;;
3779;SDS011;1905;52.482;9.802;2023-09-08T07:07:45;21.47;;;9.07;;
3779;SDS011;1905;52.482;9.802;2023-09-08T07:10:16;17.27;;;9.53;;
3779;SDS011;1905;52.482;9.802;2023-09-08T07:12:44;20.97;;;8.90;;
3779;SDS011;1905;52.482;9.802;2023-09-08T07:15:14;18.30;;;8.67;;
3779;SDS011;1905;52.482;9.802;2023-09-08T07:17:45;15.30;;;8.50;;
3779;SDS011;1905;52.482;9.802;2023-09-08T07:20:13;23.07;;;9.07;;
3779;SDS011;1905;52.482;9.802;2023-09-08T07:22:41;16.67;;;8.33;;
3779;SDS011;1905;52.482;9.802;2023-09-08T07:25:10;18.20;;;7.90;;
3779;SDS011;1905;52.482;9.802;2023-09-08T07:27:38;17.27;;;7.90;;
3779;SDS011;1905;52.482;9.802;2023-09-08T07:30:07;14.90;;;8.63;;
3779;SDS011;1905;52.482;9.802;2023-09-08T07:32:35;16.10;;;8.73;;
3779;SDS011;1905;52.482;9.802;2023-09-08T07:35:03;13.60;;;7.20;;
3779;SDS011;1905;52.482;9.802;2023-09-08T07:37:31;17.90;;;8.60;;
3779;SDS011;1905;52.482;9.802;2023-09-08T07:39:58;15.67;;;8.20;;
3779;SDS011;1905;52.482;9.802;2023-09-08T07:42:28;16.20;;;7.93;;
3779;SDS011;1905;52.482;9.802;2023-09-08T07:44:56;19.87;;;7.70;;
3779;SDS011;1905;52.482;9.802;2023-09-08T07:47:23;17.50;;;6.90;;
3779;SDS011;1905;52.482;9.802;2023-09-08T07:49:51;24.60;;;9.47;;
3779;SDS011;1905;52.482;9.802;2023-09-08T07:52:19;16.13;;;8.17;;
3779;SDS011;1905;52.482;9.802;2023-09-08T07:54:46;14.37;;;7.57;;
3779;SDS011;1905;52.482;9.802;2023-09-08T07:57:14;16.67;;;8.57;;
3779;SDS011;1905;52.482;9.802;2023-09-08T07:59:43;14.93;;;7.70;;
3779;SDS011;1905;52.482;9.802;2023-09-08T08:02:10;16.20;;;7.87;;
3779;SDS011;1905;52.482;9.802;2023-09-08T08:04:38;15.13;;;6.80;;
3779;SDS011;1905;52.482;9.802;2023-09-08T08:07:06;13.30;;;7.50;;
3779;SDS011;1905;52.482;9.802;2023-09-08T08:09:33;16.87;;;7.97;;
3779;SDS011;1905;52.482;9.802;2023-09-08T08:12:01;15.93;;;6.90;;
3779;SDS011;1905;52.482;9.802;2023-09-08T08:14:28;18.43;;;8.10;;
3779;SDS011;1905;52.482;9.802;2023-09-08T08:16:57;16.20;;;7.20;;
3779;SDS011;1905;52.482;9.802;2023-09-08T08:19:25;13.10;;;7.50;;
3779;SDS011;1905;52.482;9.802;2023-09-08T08:21:53;12.93;;;6.77;;
3779;SDS011;1905;52.482;9.802;2023-09-08T08:24:23;17.97;;;7.33;;
3779;SDS011;1905;52.482;9.802;2023-09-08T08:26:51;13.63;;;6.67;;
3779;SDS011;1905;52.482;9.802;2023-09-08T08:29:19;12.20;;;6.67;;
3779;SDS011;1905;52.482;9.802;2023-09-08T08:31:46;13.17;;;6.70;;
3779;SDS011;1905;52.482;9.802;2023-09-08T08:34:15;13.77;;;6.90;;
3779;SDS011;1905;52.482;9.802;2023-09-08T08:36:43;13.33;;;6.60;;
3779;SDS011;1905;52.482;9.802;2023-09-08T08:39:10;13.37;;;7.33;;
3779;SDS011;1905;52.482;9.802;2023-09-08T08:41:38;15.40;;;7.70;;
3779;SDS011;1905;52.482;9.802;2023-09-08T08:44:08;18.40;;;7.90;;
3779;SDS011;1905;52.482;9.802;2023-09-08T08:46:36;14.70;;;6.77;;
3779;SDS011;1905;52.482;9.802;2023-09-08T08:49:04;16.37;;;6.90;;
3779;SDS011;1905;52.482;9.802;2023-09-08T08:51:36;17.30;;;7.77;;
3779;SDS011;1905;52.482;9.802;2023-09-08T08:54:05;12.97;;;6.20;;
3779;SDS011;1905;52.482;9.802;2023-09-08T08:56:34;15.33;;;6.93;;
3779;SDS011;1905;52.482;9.802;2023-09-08T08:59:03;12.93;;;6.77;;
3779;SDS011;1905;52.482;9.802;2023-09-08T09:01:31;13.50;;;7.00;;
3779;SDS011;1905;52.482;9.802;2023-09-08T09:03:59;12.23;;;5.83;;
3779;SDS011;1905;52.482;9.802;2023-09-08T09:06:27;13.43;;;6.00;;
3779;SDS011;1905;52.482;9.802;2023-09-08T09:08:56;13.50;;;6.90;;
3779;SDS011;1905;52.482;9.802;2023-09-08T09:11:25;13.37;;;6.80;;
3779;SDS011;1905;52.482;9.802;2023-09-08T09:13:52;15.33;;;6.70;;
3779;SDS011;1905;52.482;9.802;2023-09-08T09:16:20;14.63;;;7.00;;
3779;SDS011;1905;52.482;9.802;2023-09-08T09:18:54;11.60;;;6.80;;
3779;SDS011;1905;52.482;9.802;2023-09-08T09:21:23;14.63;;;6.07;;
3779;SDS011;1905;52.482;9.802;2023-09-08T09:23:50;12.90;;;6.47;;
3779;SDS011;1905;52.482;9.802;2023-09-08T09:26:26;14.70;;;6.90;;
3779;SDS011;1905;52.482;9.802;2023-09-08T09:28:53;15.50;;;7.00;;
3779;SDS011;1905;52.482;9.802;2023-09-08T09:31:24;12.03;;;6.20;;
3779;SDS011;1905;52.482;9.802;2023-09-08T09:34:01;14.17;;;6.20;;
3779;SDS011;1905;52.482;9.802;2023-09-08T09:36:33;11.17;;;5.90;;
3779;SDS011;1905;52.482;9.802;2023-09-08T09:39:01;13.53;;;6.07;;
3779;SDS011;1905;52.482;9.802;2023-09-08T09:41:30;12.00;;;5.93;;
3779;SDS011;1905;52.482;9.802;2023-09-08T09:43:58;15.40;;;6.50;;
3779;SDS011;1905;52.482;9.802;2023-09-08T09:46:27;13.00;;;6.80;;
3779;SDS011;1905;52.482;9.802;2023-09-08T09:48:55;12.67;;;6.70;;
3779;SDS011;1905;52.482;9.802;2023-09-08T09:51:23;51.60;;;8.00;;
3779;SDS011;1905;52.482;9.802;2023-09-08T09:53:51;14.50;;;6.40;;
3779;SDS011;1905;52.482;9.802;2023-09-08T09:56:20;12.67;;;6.47;;
3779;SDS011;1905;52.482;9.802;2023-09-08T09:58:51;13.17;;;6.20;;
3779;SDS011;1905;52.482;9.802;2023-09-08T10:01:20;12.37;;;6.30;;
3779;SDS011;1905;52.482;9.802;2023-09-08T10:03:50;10.70;;;5.70;;
3779;SDS011;1905;52.482;9.802;2023-09-08T10:06:18;12.00;;;6.40;;
3779;SDS011;1905;52.482;9.802;2023-09-08T10:08:47;12.70;;;6.30;;
3779;SDS011;1905;52.482;9.802;2023-09-08T10:11:16;13.63;;;6.37;;
3779;SDS011;1905;52.482;9.802;2023-09-08T10:13:49;19.73;;;5.50;;
3779;SDS011;1905;52.482;9.802;2023-09-08T10:16:20;11.30;;;5.83;;
3779;SDS011;1905;52.482;9.802;2023-09-08T10:18:49;13.90;;;8.43;;
3779;SDS011;1905;52.482;9.802;2023-09-08T10:21:19;13.00;;;5.70;;
3779;SDS011;1905;52.482;9.802;2023-09-08T10:23:52;15.77;;;6.60;;
3779;SDS011;1905;52.482;9.802;2023-09-08T10:26:25;22.07;;;5.80;;
3779;SDS011;1905;52.482;9.802;2023-09-08T10:28:56;15.53;;;7.53;;
3779;SDS011;1905;52.482;9.802;2023-09-08T10:31:25;14.00;;;6.30;;
3779;SDS011;1905;52.482;9.802;2023-09-08T10:33:54;17.40;;;6.20;;
3779;SDS011;1905;52.482;9.802;2023-09-08T10:36:23;16.27;;;6.77;;
3779;SDS011;1905;52.482;9.802;2023-09-08T10:38:51;18.23;;;8.33;;
3779;SDS011;1905;52.482;9.802;2023-09-08T10:41:27;13.23;;;6.67;;
3779;SDS011;1905;52.482;9.802;2023-09-08T10:44:00;13.03;;;6.33;;
3779;SDS011;1905;52.482;9.802;2023-09-08T10:46:31;12.80;;;6.07;;
3779;SDS011;1905;52.482;9.802;2023-09-08T10:49:01;13.70;;;6.60;;
3779;SDS011;1905;52.482;9.802;2023-09-08T10:51:33;12.20;;;6.17;;
3779;SDS011;1905;52.482;9.802;2023-09-08T10:54:01;14.50;;;7.30;;
3779;SDS011;1905;52.482;9.802;2023-09-08T10:56:46;14.97;;;6.17;;
3779;SDS011;1905;52.482;9.802;2023-09-08T10:59:17;12.10;;;6.27;;
3779;SDS011;1905;52.482;9.802;2023-09-08T11:01:46;13.83;;;6.33;;
3779;SDS011;1905;52.482;9.802;2023-09-08T11:04:14;12.30;;;6.17;;
3779;SDS011;1905;52.482;9.802;2023-09-08T11:06:45;11.23;;;5.97;;
3779;SDS011;1905;52.482;9.802;2023-09-08T11:09:13;15.40;;;6.53;;
3779;SDS011;1905;52.482;9.802;2023-09-08T11:11:40;12.30;;;6.20;;
3779;SDS011;1905;52.482;9.802;2023-09-08T11:14:09;16.80;;;5.50;;
3779;SDS011;1905;52.482;9.802;2023-09-08T11:16:38;12.97;;;5.90;;
3779;SDS011;1905;52.482;9.802;2023-09-08T11:19:06;16.57;;;6.47;;
3779;SDS011;1905;52.482;9.802;2023-09-08T11:21:35;12.97;;;5.57;;
3779;SDS011;1905;52.482;9.802;2023-09-08T11:24:07;11.33;;;5.20;;
3779;SDS011;1905;52.482;9.802;2023-09-08T11:26:35;12.77;;;5.10;;
3779;SDS011;1905;52.482;9.802;2023-09-08T11:29:05;11.60;;;5.20;;
3779;SDS011;1905;52.482;9.802;2023-09-08T11:31:32;10.10;;;4.90;;
3779;SDS011;1905;52.482;9.802;2023-09-08T11:34:03;10.90;;;5.07;;
3779;SDS011;1905;52.482;9.802;2023-09-08T11:36:31;12.53;;;5.30;;
3779;SDS011;1905;52.482;9.802;2023-09-08T11:38:59;10.67;;;4.50;;
3779;SDS011;1905;52.482;9.802;2023-09-08T11:41:26;10.67;;;5.03;;
3779;SDS011;1905;52.482;9.802;2023-09-08T11:43:55;11.77;;;5.50;;
3779;SDS011;1905;52.482;9.802;2023-09-08T11:46:23;12.03;;;4.50;;
3779;SDS011;1905;52.482;9.802;2023-09-08T11:48:52;10.70;;;5.17;;
3779;SDS011;1905;52.482;9.802;2023-09-08T11:51:23;10.20;;;4.83;;
3779;SDS011;1905;52.482;9.802;2023-09-08T11:53:51;10.93;;;5.13;;
3779;SDS011;1905;52.482;9.802;2023-09-08T11:56:19;15.70;;;5.27;;
3779;SDS011;1905;52.482;9.802;2023-09-08T11:58:47;9.60;;;4.03;;
3779;SDS011;1905;52.482;9.802;2023-09-08T12:01:15;16.53;;;4.97;;
3779;SDS011;1905;52.482;9.802;2023-09-08T12:03:53;10.53;;;4.43;;
3779;SDS011;1905;52.482;9.802;2023-09-08T12:06:24;8.90;;;4.10;;
3779;SDS011;1905;52.482;9.802;2023-09-08T12:08:53;17.73;;;5.53;;
3779;SDS011;1905;52.482;9.802;2023-09-08T12:11:21;12.27;;;4.87;;
3779;SDS011;1905;52.482;9.802;2023-09-08T12:13:49;10.03;;;4.73;;
3779;SDS011;1905;52.482;9.802;2023-09-08T12:16:17;9.80;;;4.50;;
3779;SDS011;1905;52.482;9.802;2023-09-08T12:18:45;17.07;;;4.90;;
3779;SDS011;1905;52.482;9.802;2023-09-08T12:21:14;11.17;;;4.57;;
3779;SDS011;1905;52.482;9.802;2023-09-08T12:23:51;10.20;;;4.73;;
3779;SDS011;1905;52.482;9.802;2023-09-08T12:26:19;10.20;;;4.47;;
3779;SDS011;1905;52.482;9.802;2023-09-08T12:28:48;10.23;;;4.00;;
3779;SDS011;1905;52.482;9.802;2023-09-08T12:31:16;12.27;;;3.90;;
3779;SDS011;1905;52.482;9.802;2023-09-08T12:33:46;11.90;;;4.60;;
3779;SDS011;1905;52.482;9.802;2023-09-08T12:36:14;9.83;;;4.57;;
3779;SDS011;1905;52.482;9.802;2023-09-08T12:38:46;10.40;;;4.20;;
3779;SDS011;1905;52.482;9.802;2023-09-08T12:41:16;10.10;;;3.53;;
3779;SDS011;1905;52.482;9.802;2023-09-08T12:43:44;10.90;;;4.50;;
3779;SDS011;1905;52.482;9.802;2023-09-08T12:46:12;8.00;;;3.50;;
3779;SDS011;1905;52.482;9.802;2023-09-08T12:48:39;19.20;;;7.53;;
3779;SDS011;1905;52.482;9.802;2023-09-08T12:51:07;10.97;;;4.50;;
3779;SDS011;1905;52.482;9.802;2023-09-08T12:53:35;7.37;;;3.30;;
3779;SDS011;1905;52.482;9.802;2023-09-08T12:56:02;8.97;;;4.10;;
3779;SDS011;1905;52.482;9.802;2023-09-08T12:58:32;10.13;;;4.40;;
3779;SDS011;1905;52.482;9.802;2023-09-08T13:01:00;8.90;;;3.80;;
3779;SDS011;1905;52.482;9.802;2023-09-08T13:03:30;9.60;;;3.70;;
3779;SDS011;1905;52.482;9.802;2023-09-08T13:05:58;8.90;;;3.87;;
3779;SDS011;1905;52.482;9.802;2023-09-08T13:08:26;8.63;;;3.90;;
3779;SDS011;1905;52.482;9.802;2023-09-08T13:10:53;8.20;;;3.80;;
3779;SDS011;1905;52.482;9.802;2023-09-08T13:13:21;10.10;;;3.37;;
3779;SDS011;1905;52.482;9.802;2023-09-08T13:15:50;9.37;;;3.50;;
3779;SDS011;1905;52.482;9.802;2023-09-08T13:18:17;10.80;;;3.90;;
3779;SDS011;1905;52.482;9.802;2023-09-08T13:20:45;8.87;;;3.90;;
3779;SDS011;1905;52.482;9.802;2023-09-08T13:23:13;12.80;;;3.60;;
3779;SDS011;1905;52.482;9.802;2023-09-08T13:25:40;10.77;;;3.20;;
3779;SDS011;1905;52.482;9.802;2023-09-08T13:28:08;10.00;;;3.43;;
3779;SDS011;1905;52.482;9.802;2023-09-08T13:30:36;9.10;;;3.60;;
3779;SDS011;1905;52.482;9.802;2023-09-08T13:33:05;17.23;;;3.40;;
3779;SDS011;1905;52.482;9.802;2023-09-08T13:35:34;9.43;;;3.70;;
3779;SDS011;1905;52.482;9.802;2023-09-08T13:38:02;8.93;;;4.00;;
3779;SDS011;1905;52.482;9.802;2023-09-08T13:40:30;9.33;;;3.20;;
3779;SDS011;1905;52.482;9.802;2023-09-08T13:42:57;11.07;;;3.50;;
3779;SDS011;1905;52.482;9.802;2023-09-08T13:45:25;10.67;;;3.53;;
3779;SDS011;1905;52.482;9.802;2023-09-08T13:47:53;9.30;;;3.83;;
3779;SDS011;1905;52.482;9.802;2023-09-08T13:50:23;7.90;;;2.93;;
3779;SDS011;1905;52.482;9.802;2023-09-08T13:52:53;8.67;;;3.37;;
3779;SDS011;1905;52.482;9.802;2023-09-08T13:55:21;10.80;;;3.40;;
3779;SDS011;1905;52.482;9.802;2023-09-08T13:58:03;9.63;;;3.73;;
3779;SDS011;1905;52.482;9.802;2023-09-08T14:00:35;8.33;;;3.70;;
3779;SDS011;1905;52.482;9.802;2023-09-08T14:03:04;13.80;;;3.90;;
3779;SDS011;1905;52.482;9.802;2023-09-08T14:05:39;14.23;;;3.30;;
3779;SDS011;1905;52.482;9.802;2023-09-08T14:08:11;11.10;;;3.10;;
3779;SDS011;1905;52.482;9.802;2023-09-08T14:10:52;7.73;;;3.10;;
3779;SDS011;1905;52.482;9.802;2023-09-08T14:13:31;12.30;;;3.80;;
3779;SDS011;1905;52.482;9.802;2023-09-08T14:15:58;8.73;;;3.50;;
3779;SDS011;1905;52.482;9.802;2023-09-08T14:18:28;9.33;;;4.00;;
3779;SDS011;1905;52.482;9.802;2023-09-08T14:20:57;8.87;;;3.57;;
3779;SDS011;1905;52.482;9.802;2023-09-08T14:23:25;8.77;;;3.53;;
3779;SDS011;1905;52.482;9.802;2023-09-08T14:25:53;8.90;;;3.90;;
3779;SDS011;1905;52.482;9.802;2023-09-08T14:28:21;10.13;;;3.47;;
3779;SDS011;1905;52.482;9.802;2023-09-08T14:30:49;9.03;;;3.50;;
3779;SDS011;1905;52.482;9.802;2023-09-08T14:33:16;8.00;;;2.90;;
3779;SDS011;1905;52.482;9.802;2023-09-08T14:35:44;11.20;;;3.20;;
3779;SDS011;1905;52.482;9.802;2023-09-08T14:38:18;8.70;;;3.30;;
3779;SDS011;1905;52.482;9.802;2023-09-08T14:40:53;9.67;;;3.67;;
3779;SDS011;1905;52.482;9.802;2023-09-08T14:43:22;9.00;;;3.57;;
3779;SDS011;1905;52.482;9.802;2023-09-08T14:45:50;13.30;;;3.63;;
3779;SDS011;1905;52.482;9.802;2023-09-08T14:48:18;11.70;;;3.70;;
3779;SDS011;1905;52.482;9.802;2023-09-08T14:50:47;7.60;;;3.10;;
3779;SDS011;1905;52.482;9.802;2023-09-08T14:53:14;7.90;;;3.30;;
3779;SDS011;1905;52.482;9.802;2023-09-08T14:55:43;13.73;;;3.80;;
3779;SDS011;1905;52.482;9.802;2023-09-08T14:58:13;12.33;;;3.07;;
3779;SDS011;1905;52.482;9.802;2023-09-08T15:00:41;8.90;;;3.70;;
3779;SDS011;1905;52.482;9.802;2023-09-08T15:03:09;9.63;;;3.70;;
3779;SDS011;1905;52.482;9.802;2023-09-08T15:05:37;11.07;;;3.30;;
3779;SDS011;1905;52.482;9.802;2023-09-08T15:08:05;7.20;;;3.00;;
3779;SDS011;1905;52.482;9.802;2023-09-08T15:10:33;8.60;;;3.33;;
3779;SDS011;1905;52.482;9.802;2023-09-08T15:13:02;9.43;;;3.77;;